createdAt,value
2023-02-28T00:00:38.248Z,67.64
2023-02-28T00:03:05.115Z,67.61
2023-02-28T00:05:31.892Z,67.60
2023-02-28T00:07:58.527Z,67.67
2023-02-28T00:10:28.367Z,67.74
2023-02-28T00:12:57.836Z,67.69
2023-02-28T00:15:24.748Z,67.68
2023-02-28T00:17:51.498Z,67.77
2023-02-28T00:20:18.488Z,67.69
2023-02-28T00:22:46.952Z,67.70
2023-02-28T00:25:16.094Z,67.97
2023-02-28T00:27:42.932Z,67.86
2023-02-28T00:30:13.594Z,67.98
2023-02-28T00:32:40.172Z,67.93
2023-02-28T00:35:07.714Z,67.86
2023-02-28T00:37:34.339Z,67.87
2023-02-28T00:40:00.941Z,67.92
2023-02-28T00:42:27.623Z,67.84
2023-02-28T00:44:55.394Z,67.83
2023-02-28T00:47:21.985Z,67.70
2023-02-28T00:49:48.706Z,67.66
2023-02-28T00:52:15.264Z,67.66
2023-02-28T00:54:41.995Z,67.79
2023-02-28T00:57:08.650Z,67.85
2023-02-28T00:59:35.288Z,68.00
2023-02-28T01:02:01.836Z,67.99
2023-02-28T01:04:28.521Z,67.92
2023-02-28T01:06:55.117Z,67.94
2023-02-28T01:09:21.673Z,68.12
2023-02-28T01:11:48.305Z,67.99
2023-02-28T01:14:16.905Z,67.93
2023-02-28T01:16:45.206Z,67.86
2023-02-28T01:19:11.882Z,67.90
2023-02-28T01:21:39.136Z,67.79
2023-02-28T01:24:06.617Z,67.82
2023-02-28T01:26:33.261Z,67.88
2023-02-28T01:29:00.135Z,67.87
2023-02-28T01:31:27.309Z,67.82
2023-02-28T01:33:54.123Z,67.77
2023-02-28T01:36:22.939Z,67.67
2023-02-28T01:38:49.703Z,67.92
2023-02-28T01:41:19.394Z,67.92
2023-02-28T01:43:45.903Z,67.82
2023-02-28T01:46:13.407Z,67.81
2023-02-28T01:48:43.986Z,67.92
2023-02-28T01:51:16.974Z,67.79
2023-02-28T01:53:48.306Z,68.09
2023-02-28T01:56:21.659Z,68.17
2023-02-28T01:58:50.395Z,68.15
2023-02-28T02:01:22.463Z,68.41
2023-02-28T02:03:57.380Z,68.47
2023-02-28T02:06:36.797Z,68.34
2023-02-28T02:09:04.048Z,68.44
2023-02-28T02:11:31.298Z,68.64
2023-02-28T02:14:31.564Z,68.65
2023-02-28T02:17:16.017Z,68.73
2023-02-28T02:20:07.741Z,68.60
2023-02-28T02:23:03.845Z,68.85
2023-02-28T02:25:41.488Z,68.88
2023-02-28T02:28:43.960Z,68.92
2023-02-28T02:31:31.122Z,68.81
2023-02-28T02:34:20.052Z,69.03
2023-02-28T02:36:54.820Z,68.72
2023-02-28T02:39:53.582Z,68.81
2023-02-28T02:42:27.933Z,68.63
2023-02-28T02:45:02.332Z,68.73
2023-02-28T02:47:30.968Z,68.75
2023-02-28T02:49:59.749Z,68.66
2023-02-28T02:52:34.919Z,68.67
2023-02-28T02:55:03.553Z,68.64
2023-02-28T02:57:35.564Z,68.67
2023-02-28T03:00:06.072Z,68.68
2023-02-28T03:02:35.459Z,68.82
2023-02-28T03:05:06.265Z,68.66
2023-02-28T03:07:32.817Z,68.71
2023-02-28T03:09:59.526Z,68.92
2023-02-28T03:12:36.934Z,69.13
2023-02-28T03:15:09.831Z,69.04
2023-02-28T03:17:51.605Z,69.18
2023-02-28T03:20:37.290Z,69.12
2023-02-28T03:23:20.725Z,69.56
2023-02-28T03:25:58.070Z,69.67
2023-02-28T03:28:33.984Z,69.65
2023-02-28T03:31:24.521Z,69.82
2023-02-28T03:34:02.911Z,69.72
2023-02-28T03:36:45.029Z,69.68
2023-02-28T03:39:24.480Z,69.92
2023-02-28T03:41:55.327Z,70.06
2023-02-28T03:44:39.412Z,70.16
2023-02-28T03:47:18.870Z,70.02
2023-02-28T03:49:57.306Z,70.29
2023-02-28T03:52:28.382Z,70.08
2023-02-28T03:54:58.105Z,69.84
2023-02-28T03:57:43.991Z,70.12
2023-02-28T04:00:18.918Z,70.53
2023-02-28T04:02:46.198Z,70.29
2023-02-28T04:05:12.753Z,70.26
2023-02-28T04:07:39.390Z,70.38
2023-02-28T04:10:06.492Z,70.29
2023-02-28T04:12:33.056Z,70.17
2023-02-28T04:14:59.624Z,70.22
2023-02-28T04:17:26.304Z,69.97
2023-02-28T04:19:53.043Z,70.00
2023-02-28T04:22:19.723Z,70.01
2023-02-28T04:24:46.399Z,70.21
2023-02-28T04:27:13.021Z,70.21
2023-02-28T04:29:39.619Z,70.05
2023-02-28T04:32:06.373Z,70.07
2023-02-28T04:34:33.760Z,70.09
2023-02-28T04:37:16.957Z,70.15
2023-02-28T04:39:44.030Z,70.18
2023-02-28T04:42:10.910Z,70.15
2023-02-28T04:44:37.527Z,70.31
2023-02-28T04:47:04.080Z,70.19
2023-02-28T04:49:30.756Z,70.20
2023-02-28T04:51:57.312Z,70.05
2023-02-28T04:54:23.897Z,70.15
2023-02-28T04:56:51.000Z,70.14
2023-02-28T04:59:17.670Z,70.07
2023-02-28T05:01:47.920Z,70.06
2023-02-28T05:04:14.668Z,70.26
2023-02-28T05:06:41.214Z,70.30
2023-02-28T05:09:07.805Z,70.17
2023-02-28T05:11:39.731Z,70.11
2023-02-28T05:14:10.101Z,69.95
2023-02-28T05:16:36.657Z,69.99
2023-02-28T05:19:03.381Z,70.22
2023-02-28T05:21:32.788Z,70.12
2023-02-28T05:24:01.618Z,70.11
2023-02-28T05:26:29.089Z,70.12
2023-02-28T05:28:55.957Z,70.11
2023-02-28T05:31:22.905Z,70.35
2023-02-28T05:33:49.558Z,70.34
2023-02-28T05:36:16.195Z,70.29
2023-02-28T05:38:42.819Z,70.19
2023-02-28T05:41:10.653Z,70.22
2023-02-28T05:43:38.152Z,70.13
2023-02-28T05:46:06.722Z,70.24
2023-02-28T05:48:35.458Z,70.21
2023-02-28T05:51:03.572Z,70.00
2023-02-28T05:53:30.654Z,69.95
2023-02-28T05:55:57.433Z,69.90
2023-02-28T05:58:24.360Z,70.05
2023-02-28T06:00:50.913Z,69.93
2023-02-28T06:03:17.449Z,69.92
2023-02-28T06:05:44.033Z,69.86
2023-02-28T06:08:10.643Z,69.99
2023-02-28T06:10:37.191Z,70.20
2023-02-28T06:13:04.859Z,70.11
2023-02-28T06:15:31.848Z,70.20
2023-02-28T06:17:58.494Z,70.17
2023-02-28T06:20:27.143Z,70.13
2023-02-28T06:22:55.472Z,69.86
2023-02-28T06:25:22.023Z,69.82
2023-02-28T06:27:49.437Z,69.91
2023-02-28T06:30:16.061Z,69.92
2023-02-28T06:32:42.660Z,70.02
2023-02-28T06:35:09.477Z,70.22
2023-02-28T06:37:36.118Z,70.35
2023-02-28T06:40:02.880Z,70.17
2023-02-28T06:42:31.838Z,70.31
2023-02-28T06:44:58.843Z,70.39
2023-02-28T06:47:25.584Z,70.56
2023-02-28T06:49:52.209Z,70.60
2023-02-28T06:52:18.789Z,70.75
2023-02-28T06:54:45.337Z,70.76
2023-02-28T06:57:12.011Z,70.83
2023-02-28T06:59:38.566Z,70.81
2023-02-28T07:02:07.479Z,70.99
2023-02-28T07:04:34.182Z,71.15
2023-02-28T07:07:00.804Z,71.18
2023-02-28T07:09:31.006Z,71.27
2023-02-28T07:11:57.626Z,71.39
2023-02-28T07:14:24.208Z,71.46
2023-02-28T07:16:51.444Z,71.42
2023-02-28T07:19:18.016Z,71.70
2023-02-28T07:21:44.607Z,71.61
2023-02-28T07:24:11.482Z,71.86
2023-02-28T07:26:38.040Z,71.83
2023-02-28T07:29:05.597Z,72.08
2023-02-28T07:31:32.581Z,72.14
2023-02-28T07:33:59.527Z,72.40
2023-02-28T07:36:27.140Z,72.57
2023-02-28T07:38:54.259Z,72.21
2023-02-28T07:41:22.331Z,72.10
2023-02-28T07:43:49.194Z,71.57
2023-02-28T07:46:16.696Z,70.96
2023-02-28T07:48:44.585Z,70.47
2023-02-28T07:51:11.169Z,70.42
2023-02-28T07:53:37.733Z,70.58
2023-02-28T07:56:04.995Z,70.36
2023-02-28T07:58:31.880Z,70.81
2023-02-28T08:00:59.071Z,71.00
2023-02-28T08:03:26.103Z,71.16
2023-02-28T08:05:53.722Z,71.04
2023-02-28T08:08:20.279Z,71.25
2023-02-28T08:10:46.901Z,71.41
2023-02-28T08:13:13.456Z,71.70
2023-02-28T08:15:42.273Z,72.02
2023-02-28T08:18:12.192Z,72.02
2023-02-28T08:20:38.873Z,71.28
2023-02-28T08:23:05.441Z,67.39
2023-02-28T08:25:31.984Z,63.74
2023-02-28T08:27:58.554Z,61.76
2023-02-28T08:30:26.282Z,60.26
2023-02-28T08:32:53.062Z,53.98
2023-02-28T08:35:19.763Z,52.99
2023-02-28T08:37:49.420Z,53.36
2023-02-28T08:40:19.184Z,53.47
2023-02-28T08:42:46.755Z,52.83
2023-02-28T08:45:14.550Z,53.71
2023-02-28T08:47:41.682Z,52.40
2023-02-28T08:50:09.163Z,48.67
2023-02-28T08:52:35.827Z,45.99
2023-02-28T08:55:02.450Z,44.30
2023-02-28T08:57:29.053Z,41.63
2023-02-28T08:59:55.668Z,41.96
2023-02-28T09:02:22.238Z,39.70
2023-02-28T09:04:48.866Z,39.58
2023-02-28T09:07:15.452Z,38.46
2023-02-28T09:09:54.656Z,38.24
2023-02-28T09:12:28.364Z,35.67
2023-02-28T09:14:55.036Z,35.07
2023-02-28T09:17:21.705Z,36.86
2023-02-28T09:19:51.314Z,34.26
2023-02-28T09:22:17.970Z,34.39
2023-02-28T09:24:45.830Z,34.34
2023-02-28T09:27:12.645Z,33.99
2023-02-28T09:29:40.202Z,35.23
2023-02-28T09:32:07.044Z,35.05
2023-02-28T09:34:34.183Z,34.32
2023-02-28T09:37:00.971Z,34.59
2023-02-28T09:39:27.987Z,33.18
2023-02-28T09:41:55.462Z,33.73
2023-02-28T09:44:43.797Z,32.66
2023-02-28T09:47:22.662Z,32.06
2023-02-28T09:49:49.964Z,32.13
2023-02-28T09:52:23.068Z,32.55
2023-02-28T09:54:49.743Z,32.55
2023-02-28T09:57:47.265Z,31.39
2023-02-28T10:00:21.871Z,31.68
2023-02-28T10:03:13.331Z,31.61
2023-02-28T10:05:44.860Z,30.61
2023-02-28T10:08:15.747Z,30.84
2023-02-28T10:10:50.539Z,30.91
2023-02-28T10:13:35.211Z,30.67
2023-02-28T10:16:12.633Z,30.87
2023-02-28T10:18:44.680Z,30.02
2023-02-28T10:21:20.714Z,30.14
2023-02-28T10:23:48.928Z,30.43
2023-02-28T10:26:18.912Z,30.43
2023-02-28T10:28:46.264Z,29.11
2023-02-28T10:31:17.868Z,28.99
2023-02-28T10:33:45.150Z,29.21
2023-02-28T10:36:16.141Z,29.08
2023-02-28T10:38:43.900Z,29.80
2023-02-28T10:41:31.571Z,29.32
2023-02-28T10:44:16.193Z,27.97
2023-02-28T10:46:43.587Z,28.57
2023-02-28T10:49:41.537Z,27.92
2023-02-28T10:52:10.572Z,28.96
2023-02-28T10:54:38.877Z,27.20
2023-02-28T10:57:25.520Z,27.57
2023-02-28T10:59:53.727Z,28.74
2023-02-28T11:02:36.067Z,28.10
2023-02-28T11:05:03.435Z,27.13
2023-02-28T11:07:37.386Z,27.03
2023-02-28T11:10:10.127Z,27.28
2023-02-28T11:12:47.049Z,25.08
2023-02-28T11:15:21.591Z,25.26
2023-02-28T11:18:12.869Z,25.14
2023-02-28T11:20:39.805Z,25.33
2023-02-28T11:23:13.293Z,23.47
2023-02-28T11:25:40.132Z,24.22
2023-02-28T11:28:23.414Z,24.80
2023-02-28T11:31:16.803Z,22.76
2023-02-28T11:33:53.018Z,23.22
2023-02-28T11:36:28.768Z,22.93
2023-02-28T11:38:58.785Z,22.07
2023-02-28T11:41:49.682Z,23.31
2023-02-28T11:44:22.584Z,23.03
2023-02-28T11:46:52.234Z,25.14
2023-02-28T11:49:35.327Z,25.43
2023-02-28T11:52:09.742Z,24.42
2023-02-28T11:54:50.137Z,24.59
2023-02-28T11:57:28.741Z,26.38
2023-02-28T12:00:07.438Z,27.23
2023-02-28T12:03:04.419Z,27.79
2023-02-28T12:05:44.833Z,28.84
2023-02-28T12:08:24.622Z,28.52
2023-02-28T12:11:16.004Z,27.86
2023-02-28T12:14:00.752Z,28.30
2023-02-28T12:16:39.109Z,28.28
2023-02-28T12:19:24.189Z,28.28
2023-02-28T12:22:14.297Z,29.74
2023-02-28T12:25:08.218Z,29.59
2023-02-28T12:27:38.358Z,28.93
2023-02-28T12:30:21.078Z,28.31
2023-02-28T12:33:07.604Z,30.27
2023-02-28T12:35:39.339Z,30.01
2023-02-28T12:38:11.360Z,29.30
2023-02-28T12:41:05.781Z,27.36
2023-02-28T12:43:36.366Z,26.95
2023-02-28T12:46:12.543Z,26.66
2023-02-28T12:48:43.686Z,25.96
2023-02-28T12:51:10.699Z,26.62
2023-02-28T12:53:51.405Z,26.69
2023-02-28T12:56:24.231Z,26.41
2023-02-28T12:58:57.053Z,26.62
2023-02-28T13:01:33.885Z,27.83
2023-02-28T13:04:34.968Z,26.66
2023-02-28T13:07:39.607Z,29.00
2023-02-28T13:10:08.639Z,28.70
2023-02-28T13:12:36.314Z,27.99
2023-02-28T13:15:22.376Z,29.15
2023-02-28T13:17:50.696Z,27.65
2023-02-28T13:20:29.215Z,27.29
2023-02-28T13:22:58.159Z,28.25
2023-02-28T13:25:33.938Z,29.01
2023-02-28T13:28:05.166Z,29.34
2023-02-28T13:30:54.296Z,28.53
2023-02-28T13:33:29.797Z,29.88
2023-02-28T13:36:14.887Z,30.96
2023-02-28T13:38:43.550Z,30.30
2023-02-28T13:41:32.931Z,32.41
2023-02-28T13:44:14.554Z,31.39
2023-02-28T13:46:50.309Z,31.18
2023-02-28T13:49:26.024Z,30.43
2023-02-28T13:51:54.010Z,32.73
2023-02-28T13:54:56.980Z,31.58
2023-02-28T13:58:01.266Z,32.44
2023-02-28T14:00:30.805Z,34.96
2023-02-28T14:03:25.593Z,35.53
2023-02-28T14:06:10.973Z,34.28
2023-02-28T14:08:37.834Z,33.61
2023-02-28T14:11:07.993Z,33.14
2023-02-28T14:13:46.267Z,33.84
2023-02-28T14:16:19.416Z,33.25
2023-02-28T14:18:52.294Z,32.82
2023-02-28T14:21:26.629Z,34.98
2023-02-28T14:24:09.530Z,35.29
2023-02-28T14:26:57.771Z,36.66
2023-02-28T14:29:34.135Z,36.32
2023-02-28T14:32:04.135Z,37.02
2023-02-28T14:34:57.156Z,34.93
2023-02-28T14:37:31.754Z,36.08
2023-02-28T14:39:59.127Z,37.44
2023-02-28T14:42:45.096Z,36.92
2023-02-28T14:45:20.384Z,36.89
2023-02-28T14:47:47.362Z,36.95
2023-02-28T14:50:22.846Z,36.29
2023-02-28T14:52:53.289Z,35.55
2023-02-28T14:55:24.441Z,35.38
2023-02-28T14:58:07.492Z,37.57
2023-02-28T15:00:38.497Z,37.81
2023-02-28T15:03:40.180Z,37.01
2023-02-28T15:06:14.190Z,38.19
2023-02-28T15:08:40.908Z,38.47
2023-02-28T15:11:22.271Z,38.06
2023-02-28T15:13:57.499Z,38.66
2023-02-28T15:16:29.852Z,38.32
2023-02-28T15:19:09.052Z,38.31
2023-02-28T15:21:37.567Z,37.90
2023-02-28T15:24:07.158Z,37.96
2023-02-28T15:26:35.603Z,40.83
2023-02-28T15:29:09.583Z,39.25
2023-02-28T15:31:56.099Z,38.60
2023-02-28T15:34:43.083Z,38.71
2023-02-28T15:37:48.936Z,39.56
2023-02-28T15:40:27.972Z,39.26
2023-02-28T15:43:04.618Z,40.39
2023-02-28T15:45:50.171Z,40.53
2023-02-28T15:48:21.300Z,38.63
2023-02-28T15:50:51.119Z,40.09
2023-02-28T15:53:20.980Z,39.94
2023-02-28T15:55:54.634Z,39.42
2023-02-28T15:58:22.991Z,40.40
2023-02-28T16:01:02.721Z,40.25
2023-02-28T16:03:39.700Z,40.02
2023-02-28T16:06:35.571Z,40.12
2023-02-28T16:09:02.549Z,41.32
2023-02-28T16:11:29.458Z,41.15
2023-02-28T16:13:56.353Z,40.40
2023-02-28T16:16:25.919Z,40.95
2023-02-28T16:18:52.938Z,41.52
2023-02-28T16:21:19.622Z,40.83
2023-02-28T16:23:46.240Z,41.93
2023-02-28T16:26:21.109Z,41.65
2023-02-28T16:28:47.748Z,41.33
2023-02-28T16:31:17.669Z,41.81
2023-02-28T16:33:45.842Z,41.87
2023-02-28T16:36:19.021Z,42.09
2023-02-28T16:38:45.895Z,41.89
2023-02-28T16:41:20.647Z,42.05
2023-02-28T16:43:50.119Z,42.38
2023-02-28T16:46:17.883Z,42.52
2023-02-28T16:48:45.837Z,43.04
2023-02-28T16:51:13.922Z,43.88
2023-02-28T16:53:40.558Z,44.22
2023-02-28T16:56:07.933Z,44.70
2023-02-28T16:58:36.701Z,45.63
2023-02-28T17:01:04.168Z,45.30
2023-02-28T17:03:33.532Z,45.67
2023-02-28T17:06:00.618Z,46.17
2023-02-28T17:08:29.836Z,45.69
2023-02-28T17:10:56.630Z,46.39
2023-02-28T17:13:23.312Z,47.42
2023-02-28T17:15:49.962Z,46.89
2023-02-28T17:18:22.280Z,47.00
2023-02-28T17:20:49.499Z,47.49
2023-02-28T17:23:17.022Z,47.62
2023-02-28T17:25:57.550Z,47.70
2023-02-28T17:28:24.654Z,48.16
2023-02-28T17:30:51.508Z,48.70
2023-02-28T17:33:18.520Z,48.73
2023-02-28T17:35:45.102Z,49.05
2023-02-28T17:38:16.835Z,49.56
2023-02-28T17:40:43.572Z,49.71
2023-02-28T17:43:10.169Z,49.87
2023-02-28T17:45:37.306Z,50.27
2023-02-28T17:48:04.267Z,50.61
2023-02-28T17:50:30.843Z,50.16
2023-02-28T17:52:57.493Z,50.57
2023-02-28T17:55:24.112Z,51.02
2023-02-28T17:57:50.797Z,51.53
2023-02-28T18:00:18.459Z,51.65
2023-02-28T18:02:45.643Z,52.08
2023-02-28T18:05:12.481Z,51.75
2023-02-28T18:07:39.661Z,51.77
2023-02-28T18:10:08.632Z,52.34
2023-02-28T18:12:35.194Z,52.76
2023-02-28T18:15:01.868Z,53.24
2023-02-28T18:17:28.441Z,53.07
2023-02-28T18:19:55.055Z,53.24
2023-02-28T18:22:21.662Z,53.66
2023-02-28T18:24:48.293Z,53.23
2023-02-28T18:27:14.845Z,53.47
2023-02-28T18:29:42.048Z,53.42
2023-02-28T18:32:09.986Z,53.66
2023-02-28T18:34:36.835Z,54.07
2023-02-28T18:37:03.646Z,54.37
2023-02-28T18:39:30.831Z,55.21
2023-02-28T18:41:57.455Z,55.11
2023-02-28T18:44:24.160Z,55.41
2023-02-28T18:46:51.221Z,55.33
2023-02-28T18:49:18.400Z,55.67
2023-02-28T18:51:46.494Z,55.75
2023-02-28T18:54:13.973Z,55.60
2023-02-28T18:56:40.772Z,55.94
2023-02-28T18:59:07.623Z,56.41
2023-02-28T19:01:34.670Z,56.23
2023-02-28T19:04:03.647Z,56.26
2023-02-28T19:06:31.789Z,56.55
2023-02-28T19:09:01.039Z,56.27
2023-02-28T19:11:28.177Z,56.28
2023-02-28T19:13:54.775Z,56.42
2023-02-28T19:16:22.388Z,56.53
2023-02-28T19:18:49.226Z,56.61
2023-02-28T19:21:17.403Z,56.88
2023-02-28T19:23:44.497Z,57.03
2023-02-28T19:26:14.632Z,56.93
2023-02-28T19:28:41.547Z,56.84
2023-02-28T19:31:13.991Z,56.69
2023-02-28T19:33:41.012Z,56.95
2023-02-28T19:36:08.654Z,57.13
2023-02-28T19:38:35.213Z,57.18
2023-02-28T19:41:03.122Z,57.38
2023-02-28T19:43:30.300Z,57.42
2023-02-28T19:45:56.938Z,57.78
2023-02-28T19:48:26.352Z,57.91
2023-02-28T19:51:03.868Z,57.86
2023-02-28T19:53:31.266Z,57.89
2023-02-28T19:55:58.160Z,57.81
2023-02-28T19:58:24.805Z,57.92
2023-02-28T20:00:51.457Z,58.04
2023-02-28T20:03:21.109Z,58.14
2023-02-28T20:05:47.922Z,58.07
2023-02-28T20:08:15.015Z,58.20
2023-02-28T20:10:41.688Z,58.28
2023-02-28T20:13:08.745Z,58.34
2023-02-28T20:15:36.546Z,58.19
2023-02-28T20:18:03.461Z,58.53
2023-02-28T20:20:30.304Z,58.33
2023-02-28T20:22:56.896Z,58.60
2023-02-28T20:25:23.558Z,58.67
2023-02-28T20:27:50.138Z,58.66
2023-02-28T20:30:16.836Z,59.06
2023-02-28T20:32:43.925Z,59.22
2023-02-28T20:35:11.716Z,59.40
2023-02-28T20:37:40.220Z,59.44
2023-02-28T20:40:08.028Z,59.40
2023-02-28T20:42:34.800Z,59.47
2023-02-28T20:45:01.374Z,59.46
2023-02-28T20:47:28.041Z,59.71
2023-02-28T20:49:54.800Z,59.77
2023-02-28T20:52:21.364Z,60.00
2023-02-28T20:54:47.916Z,60.01
2023-02-28T20:57:15.050Z,59.95
2023-02-28T20:59:42.070Z,60.03
2023-02-28T21:02:11.799Z,60.03
2023-02-28T21:04:38.383Z,59.89
2023-02-28T21:07:04.951Z,60.08
2023-02-28T21:09:31.530Z,60.25
2023-02-28T21:11:58.123Z,60.32
2023-02-28T21:14:25.451Z,60.31
2023-02-28T21:16:52.063Z,60.35
2023-02-28T21:19:18.997Z,60.36
2023-02-28T21:21:47.883Z,60.67
2023-02-28T21:24:16.514Z,60.59
2023-02-28T21:26:45.053Z,60.71
2023-02-28T21:29:12.638Z,60.95
2023-02-28T21:31:39.611Z,61.04
2023-02-28T21:34:08.651Z,61.10
2023-02-28T21:36:37.822Z,61.14
2023-02-28T21:39:12.643Z,61.17
2023-02-28T21:41:39.230Z,61.25
2023-02-28T21:44:05.820Z,61.25
2023-02-28T21:46:32.884Z,61.45
2023-02-28T21:48:59.952Z,61.40
2023-02-28T21:51:33.522Z,61.35
2023-02-28T21:54:01.133Z,61.16
2023-02-28T21:56:30.689Z,61.49
2023-02-28T21:59:00.924Z,61.51
2023-02-28T22:01:36.863Z,61.67
2023-02-28T22:04:05.782Z,61.76
2023-02-28T22:06:35.561Z,61.92
2023-02-28T22:09:06.116Z,61.83
2023-02-28T22:11:34.814Z,61.90
2023-02-28T22:14:01.465Z,62.10
2023-02-28T22:16:33.183Z,62.05
2023-02-28T22:19:06.504Z,62.16
2023-02-28T22:21:34.645Z,61.99
2023-02-28T22:24:02.238Z,62.19
2023-02-28T22:26:29.178Z,62.16
2023-02-28T22:28:55.986Z,62.28
2023-02-28T22:31:25.555Z,62.25
2023-02-28T22:33:54.613Z,62.39
2023-02-28T22:36:21.370Z,62.40
2023-02-28T22:38:48.822Z,62.40
2023-02-28T22:41:16.048Z,62.62
2023-02-28T22:43:42.881Z,62.78
2023-02-28T22:46:12.500Z,62.95
2023-02-28T22:48:40.369Z,62.97
2023-02-28T22:51:12.655Z,62.94
2023-02-28T22:53:39.698Z,63.08
2023-02-28T22:56:07.083Z,63.25
2023-02-28T22:58:33.668Z,63.18
2023-02-28T23:01:10.663Z,63.35
2023-02-28T23:03:38.102Z,63.20
2023-02-28T23:06:24.590Z,63.32
2023-02-28T23:08:53.179Z,63.43
2023-02-28T23:11:22.307Z,63.65
2023-02-28T23:13:58.592Z,63.70
2023-02-28T23:16:37.342Z,63.82
2023-02-28T23:19:06.829Z,63.87
2023-02-28T23:21:34.433Z,63.97
2023-02-28T23:24:02.885Z,64.01
2023-02-28T23:26:31.457Z,64.19
2023-02-28T23:28:58.618Z,64.25
2023-02-28T23:31:25.417Z,64.31
2023-02-28T23:33:52.153Z,64.02
2023-02-28T23:36:18.808Z,64.23
2023-02-28T23:38:49.709Z,64.17
2023-02-28T23:41:17.536Z,64.33
2023-02-28T23:43:44.336Z,64.25
2023-02-28T23:46:12.186Z,64.22
2023-02-28T23:48:38.941Z,65.50
2023-02-28T23:51:08.840Z,65.29
2023-02-28T23:53:37.272Z,65.08
2023-02-28T23:56:04.393Z,65.08
2023-02-28T23:58:31.083Z,65.07
